createdAt,value
2022-11-02T00:01:45.888Z,99266.91
2022-11-02T00:04:31.096Z,99267.34
2022-11-02T00:07:16.447Z,99265.34
2022-11-02T00:10:01.835Z,99270.91
2022-11-02T00:12:47.987Z,99270.13
2022-11-02T00:15:36.118Z,99264.97
2022-11-02T00:18:22.007Z,99264.97
2022-11-02T00:21:07.440Z,99268.16
2022-11-02T00:23:53.893Z,99271.72
2022-11-02T00:26:39.112Z,99270.94
2022-11-02T00:29:25.641Z,99274.13
2022-11-02T00:32:13.168Z,99277.69
2022-11-02T00:34:58.283Z,99277.31
2022-11-02T00:37:44.182Z,99280.09
2022-11-02T00:40:29.373Z,99282.09
2022-11-02T00:51:15.602Z,99276.94
2022-11-02T00:54:01.753Z,99284.47
2022-11-02T00:56:46.998Z,99280.13
2022-11-02T00:59:32.249Z,99276.56
2022-11-02T01:02:18.136Z,99286.09
2022-11-02T01:05:04.885Z,99288.88
2022-11-02T01:07:50.304Z,99285.28
2022-11-02T01:10:35.602Z,99289.28
2022-11-02T01:13:20.714Z,99275.78
2022-11-02T01:16:06.774Z,99278.19
2022-11-02T01:18:56.964Z,99277.41
2022-11-02T01:21:42.208Z,99280.19
2022-11-02T01:24:27.366Z,99270.28
2022-11-02T01:27:12.674Z,99267.50
2022-11-02T01:29:57.860Z,99271.03
2022-11-02T01:32:43.055Z,99265.16
2022-11-02T01:35:28.271Z,99262.38
2022-11-02T01:38:13.620Z,99252.06
2022-11-02T01:41:00.020Z,99260.78
2022-11-02T01:43:47.365Z,99260.78
2022-11-02T01:46:42.809Z,99262.00
2022-11-02T01:49:31.690Z,99259.22
2022-11-02T01:52:26.348Z,99254.88
2022-11-02T01:55:16.679Z,99263.97
2022-11-02T01:58:08.351Z,99260.84
2022-11-02T02:00:54.418Z,99255.31
2022-11-02T02:03:42.416Z,99260.84
2022-11-02T02:06:28.263Z,99256.09
2022-11-02T02:09:14.877Z,99257.28
2022-11-02T02:12:00.473Z,99256.91
2022-11-02T02:14:45.968Z,99254.94
2022-11-02T02:18:06.954Z,99251.34
2022-11-02T02:21:25.386Z,99250.56
2022-11-02T02:24:23.043Z,99249.00
2022-11-02T02:27:16.588Z,99263.66
2022-11-02T02:30:05.483Z,99261.72
2022-11-02T02:33:10.421Z,99268.81
2022-11-02T02:36:07.736Z,99269.22
2022-11-02T02:39:17.155Z,99265.69
2022-11-02T02:42:05.616Z,99270.44
2022-11-02T02:45:13.063Z,99279.53
2022-11-02T02:48:31.784Z,99280.75
2022-11-02T02:51:37.921Z,99270.44
2022-11-02T02:54:31.113Z,99279.16
2022-11-02T02:57:22.361Z,99270.84
2022-11-02T03:00:14.080Z,99279.16
2022-11-02T03:03:01.459Z,99277.59
2022-11-02T03:06:03.352Z,99281.56
2022-11-02T03:09:10.674Z,99278.78
2022-11-02T03:12:21.742Z,99270.47
2022-11-02T03:15:25.830Z,99277.63
2022-11-02T03:18:28.769Z,99274.88
2022-11-02T03:21:29.332Z,99272.09
2022-11-02T03:24:51.459Z,99275.66
2022-11-02T03:27:57.892Z,99272.09
2022-11-02T03:31:02.127Z,99265.75
2022-11-02T03:34:15.709Z,99274.09
2022-11-02T03:37:25.180Z,99276.84
2022-11-02T03:40:14.674Z,99284.78
2022-11-02T03:43:05.653Z,99287.56
2022-11-02T03:45:56.552Z,99291.91
2022-11-02T03:48:48.190Z,99289.50
2022-11-02T03:51:38.391Z,99298.63
2022-11-02T03:54:35.879Z,99300.59
2022-11-02T03:57:30.291Z,99294.28
2022-11-02T04:00:25.158Z,99285.16
2022-11-02T04:03:17.866Z,99289.94
2022-11-02T04:06:03.637Z,99286.34
2022-11-02T04:08:53.624Z,99283.97
2022-11-02T04:11:58.431Z,99281.19
2022-11-02T04:14:47.782Z,99287.94
2022-11-02T04:17:54.568Z,99288.72
2022-11-02T04:20:40.461Z,99289.94
2022-11-02T04:23:44.885Z,99293.50
2022-11-02T04:26:29.973Z,99293.50
2022-11-02T04:29:15.472Z,99283.22
2022-11-02T04:32:01.629Z,99290.34
2022-11-02T04:34:47.413Z,99289.56
2022-11-02T04:37:57.267Z,99286.00
2022-11-02T04:40:42.869Z,99284.78
2022-11-02T04:43:28.295Z,99285.56
2022-11-02T04:48:51.159Z,99276.09
2022-11-02T04:51:40.174Z,99281.25
2022-11-02T04:54:26.726Z,99286.00
2022-11-02T04:57:16.540Z,99272.56
2022-11-02T05:00:03.966Z,99281.66
2022-11-02T05:02:50.728Z,99279.66
2022-11-02T05:05:39.136Z,99280.41
2022-11-02T05:08:25.414Z,99278.09
2022-11-02T05:11:11.901Z,99276.94
2022-11-02T05:13:57.492Z,99276.53
2022-11-02T05:16:43.173Z,99284.09
2022-11-02T05:19:31.554Z,99278.16
2022-11-02T05:22:21.426Z,99274.19
2022-11-02T05:25:07.591Z,99280.09
2022-11-02T05:27:53.074Z,99279.69
2022-11-02T05:30:38.978Z,99292.78
2022-11-02T05:33:30.287Z,99277.72
2022-11-02T05:36:18.354Z,99282.47
2022-11-02T05:39:06.808Z,99282.06
2022-11-02T05:41:52.129Z,99282.47
2022-11-02T05:44:40.108Z,99278.53
2022-11-02T05:47:26.031Z,99279.31
2022-11-02T05:50:11.459Z,99276.94
2022-11-02T05:52:57.359Z,99277.72
2022-11-02T05:55:43.161Z,99278.88
2022-11-02T05:58:29.206Z,99277.25
2022-11-02T06:01:14.747Z,99281.19
2022-11-02T06:04:00.064Z,99284.78
2022-11-02T06:06:45.983Z,99287.94
2022-11-02T06:09:32.403Z,99283.56
2022-11-02T06:12:18.137Z,99293.09
2022-11-02T06:15:03.579Z,99292.28
2022-11-02T06:17:49.110Z,99296.25
2022-11-02T06:20:34.446Z,99295.88
2022-11-02T06:23:19.655Z,99294.31
2022-11-02T06:26:04.858Z,99307.38
2022-11-02T06:28:50.143Z,99299.91
2022-11-02T06:31:35.541Z,99307.00
2022-11-02T06:34:20.753Z,99306.59
2022-11-02T06:37:05.890Z,99307.03
2022-11-02T06:39:51.342Z,99303.03
2022-11-02T06:42:44.956Z,99307.81
2022-11-02T06:45:36.987Z,99312.56
2022-11-02T06:48:23.591Z,99302.66
2022-11-02T06:51:08.943Z,99299.88
2022-11-02T06:53:54.375Z,99310.97
2022-11-02T06:56:39.433Z,99301.47
2022-11-02T06:59:24.893Z,99306.25
2022-11-02T07:02:10.142Z,99311.78
2022-11-02T07:04:56.157Z,99317.31
2022-11-02T07:07:41.466Z,99315.75
2022-11-02T07:10:28.148Z,99317.72
2022-11-02T07:13:14.451Z,99324.06
2022-11-02T07:15:59.699Z,99326.03
2022-11-02T07:18:44.838Z,99325.25
2022-11-02T07:21:30.085Z,99325.66
2022-11-02T07:24:15.339Z,99328.81
2022-11-02T07:27:00.645Z,99322.91
2022-11-02T07:29:45.759Z,99324.44
2022-11-02T07:32:30.998Z,99320.91
2022-11-02T07:35:17.631Z,99322.13
2022-11-02T07:38:05.901Z,99313.81
2022-11-02T07:40:51.196Z,99305.88
2022-11-02T07:43:38.783Z,99316.56
2022-11-02T07:46:45.710Z,99305.88
2022-11-02T07:49:30.916Z,99301.56
2022-11-02T07:52:16.230Z,99307.09
2022-11-02T07:55:01.685Z,99312.22
2022-11-02T07:58:01.303Z,99311.06
2022-11-02T08:00:46.437Z,99303.94
2022-11-02T08:03:31.756Z,99304.72
2022-11-02T08:06:16.919Z,99312.25
2022-11-02T08:09:03.125Z,99306.72
2022-11-02T08:11:48.450Z,99301.97
2022-11-02T08:14:33.715Z,99315.84
2022-11-02T08:17:19.054Z,99310.28
2022-11-02T08:20:04.742Z,99313.06
2022-11-02T08:22:50.526Z,99321.38
2022-11-02T08:25:36.282Z,99324.16
2022-11-02T08:28:24.894Z,99334.44
2022-11-02T08:31:15.959Z,99337.22
2022-11-02T08:34:01.423Z,99336.44
2022-11-02T08:36:46.700Z,99334.44
2022-11-02T08:39:31.944Z,99335.22
2022-11-02T08:42:17.655Z,99337.22
2022-11-02T08:45:03.140Z,99339.22
2022-11-02T08:47:48.472Z,99333.69
2022-11-02T08:50:34.733Z,99342.00
2022-11-02T08:53:19.988Z,99342.00
2022-11-02T08:56:05.298Z,99343.53
2022-11-02T08:58:50.505Z,99345.53
2022-11-02T09:01:35.862Z,99341.22
2022-11-02T09:04:21.138Z,99347.53
2022-11-02T09:07:06.390Z,99346.75
2022-11-02T09:09:51.552Z,99346.75
2022-11-02T09:12:36.796Z,99345.94
2022-11-02T09:15:22.290Z,99353.47
2022-11-02T09:18:09.131Z,99341.22
2022-11-02T09:20:54.224Z,99353.06
2022-11-02T09:23:39.806Z,99347.53
2022-11-02T09:26:24.941Z,99349.09
2022-11-02T09:29:10.352Z,99356.63
2022-11-02T09:31:55.478Z,99355.84
2022-11-02T09:34:40.818Z,99360.19
2022-11-02T09:37:26.191Z,99362.94
2022-11-02T09:40:13.499Z,99374.03
2022-11-02T09:43:32.997Z,99374.03
2022-11-02T09:46:32.651Z,99385.13
2022-11-02T09:49:30.064Z,99387.88
2022-11-02T09:52:33.547Z,99380.78
2022-11-02T09:55:25.000Z,99386.34
2022-11-02T09:58:18.298Z,99387.88
2022-11-02T10:01:18.480Z,99396.63
2022-11-02T10:04:34.305Z,99397.41
2022-11-02T10:07:34.809Z,99398.19
2022-11-02T10:10:26.434Z,99393.44
2022-11-02T10:13:32.023Z,99390.66
2022-11-02T10:16:36.136Z,99386.34
2022-11-02T10:19:26.217Z,99397.41
2022-11-02T10:22:16.457Z,99377.22
2022-11-02T10:25:06.101Z,99391.88
2022-11-02T10:28:01.490Z,99379.56
2022-11-02T10:30:46.806Z,99370.47
2022-11-02T10:33:32.084Z,99375.25
2022-11-02T10:36:37.990Z,99376.81
2022-11-02T10:39:34.177Z,99364.16
2022-11-02T10:43:00.240Z,99368.09
2022-11-02T10:46:08.924Z,99369.69
2022-11-02T10:48:59.275Z,99361.38
2022-11-02T10:51:44.831Z,99362.56
2022-11-02T10:54:34.244Z,99371.25
2022-11-02T10:57:24.107Z,99365.72
2022-11-02T11:00:30.263Z,99376.03
2022-11-02T11:03:17.620Z,99370.09
2022-11-02T11:06:04.937Z,99370.47
2022-11-02T11:08:52.165Z,99373.25
2022-11-02T11:11:38.360Z,99375.63
2022-11-02T11:20:43.108Z,99378.41
2022-11-02T11:23:28.622Z,99382.72
2022-11-02T11:26:28.361Z,99378.41
2022-11-02T11:29:23.393Z,99379.19
2022-11-02T11:32:27.128Z,99379.97
2022-11-02T11:35:18.128Z,99382.72
2022-11-02T11:38:08.918Z,99394.25
2022-11-02T11:40:58.250Z,99389.47
2022-11-02T11:43:46.761Z,99390.66
2022-11-02T11:46:48.772Z,99385.94
2022-11-02T11:50:02.869Z,99389.47
2022-11-02T11:52:42.603Z,99390.25
2022-11-02T11:55:31.691Z,99388.28
2022-11-02T11:58:22.921Z,99380.38
2022-11-02T12:01:20.156Z,99381.16
2022-11-02T12:04:05.524Z,99384.72
2022-11-02T12:07:09.031Z,99380.38
2022-11-02T12:10:06.044Z,99386.72
2022-11-02T12:12:57.562Z,99385.13
2022-11-02T12:16:04.964Z,99378.41
2022-11-02T12:19:21.171Z,99380.75
2022-11-02T12:22:41.302Z,99379.97
2022-11-02T12:26:04.925Z,99383.94
2022-11-02T12:28:54.118Z,99387.09
2022-11-02T12:31:48.037Z,99378.41
2022-11-02T12:34:57.647Z,99378.41
2022-11-02T12:37:56.894Z,99375.63
2022-11-02T12:40:58.415Z,99383.94
2022-11-02T12:43:47.319Z,99375.25
2022-11-02T12:46:53.718Z,99372.84
2022-11-02T12:49:48.052Z,99381.56
2022-11-02T12:52:48.879Z,99373.63
2022-11-02T12:55:40.036Z,99378.00
2022-11-02T12:58:29.010Z,99379.56
2022-11-02T13:01:27.541Z,99379.19
2022-11-02T13:04:36.929Z,99373.66
2022-11-02T13:07:31.259Z,99372.50
2022-11-02T13:10:38.905Z,99371.72
2022-11-02T13:13:45.072Z,99372.91
2022-11-02T13:16:53.880Z,99364.22
2022-11-02T13:19:48.445Z,99366.63
2022-11-02T13:22:38.331Z,99367.41
2022-11-02T13:25:33.374Z,99377.28
2022-11-02T13:28:43.004Z,99378.47
2022-11-02T13:31:51.236Z,99383.19
2022-11-02T13:34:55.595Z,99385.94
2022-11-02T13:37:45.169Z,99379.56
2022-11-02T13:40:37.699Z,99393.41
2022-11-02T13:43:42.055Z,99388.25
2022-11-02T13:46:43.818Z,99388.22
2022-11-02T13:49:42.912Z,99378.31
2022-11-02T13:52:38.887Z,99387.81
2022-11-02T13:55:45.719Z,99394.13
2022-11-02T13:58:39.645Z,99394.13
2022-11-02T14:01:27.165Z,99389.31
2022-11-02T14:04:15.491Z,99395.63
2022-11-02T14:07:04.560Z,99393.56
2022-11-02T14:09:50.924Z,99390.38
2022-11-02T14:12:47.244Z,99386.78
2022-11-02T14:15:32.295Z,99393.06
2022-11-02T14:18:28.791Z,99398.22
2022-11-02T14:21:41.951Z,99395.41
2022-11-02T14:24:33.529Z,99409.22
2022-11-02T14:27:20.092Z,99398.13
2022-11-02T14:30:25.478Z,99388.56
2022-11-02T14:33:19.873Z,99390.13
2022-11-02T14:36:17.344Z,99397.63
2022-11-02T14:39:15.165Z,99389.25
2022-11-02T14:42:31.171Z,99379.72
2022-11-02T14:45:22.818Z,99384.03
2022-11-02T14:48:16.130Z,99378.41
2022-11-02T14:51:06.687Z,99381.56
2022-11-02T14:54:00.190Z,99380.81
2022-11-02T14:56:53.859Z,99399.00
2022-11-02T14:59:44.952Z,99404.50
2022-11-02T15:02:41.973Z,99396.97
2022-11-02T15:05:35.085Z,99397.34
2022-11-02T15:08:26.967Z,99401.72
2022-11-02T15:11:40.442Z,99404.78
2022-11-02T15:14:35.208Z,99411.50
2022-11-02T15:17:22.312Z,99411.50
2022-11-02T15:20:16.752Z,99420.19
2022-11-02T15:23:26.508Z,99405.94
2022-11-02T15:26:27.721Z,99409.09
2022-11-02T15:29:40.299Z,99405.09
2022-11-02T15:32:28.943Z,99420.59
2022-11-02T15:35:20.410Z,99422.91
2022-11-02T15:38:30.465Z,99422.50
2022-11-02T15:41:46.232Z,99423.25
2022-11-02T15:44:46.701Z,99424.44
2022-11-02T15:47:50.024Z,99429.19
2022-11-02T15:50:54.184Z,99434.31
2022-11-02T15:54:03.874Z,99444.59
2022-11-02T15:57:01.193Z,99444.59
2022-11-02T16:00:21.672Z,99437.47
2022-11-02T16:05:55.057Z,99453.72
2022-11-02T16:08:41.902Z,99449.31
2022-11-02T16:11:28.832Z,99462.81
2022-11-02T16:14:18.093Z,99463.56
2022-11-02T16:17:04.133Z,99475.06
2022-11-02T16:19:50.041Z,99472.28
2022-11-02T16:22:36.755Z,99479.38
2022-11-02T16:25:45.994Z,99477.03
2022-11-02T16:28:34.370Z,99473.13
2022-11-02T16:31:31.262Z,99478.66
2022-11-02T16:34:21.871Z,99484.22
2022-11-02T16:37:13.329Z,99478.66
2022-11-02T16:39:58.687Z,99483.41
2022-11-02T16:42:46.499Z,99479.44
2022-11-02T16:45:40.282Z,99492.19
2022-11-02T16:48:32.864Z,99488.19
2022-11-02T16:51:19.688Z,99488.56
2022-11-02T16:54:18.469Z,99500.88
2022-11-02T16:57:19.747Z,99499.28
2022-11-02T17:00:17.526Z,99505.69
2022-11-02T17:03:15.690Z,99512.78
2022-11-02T17:06:06.342Z,99512.81
2022-11-02T17:08:55.483Z,99525.53
2022-11-02T17:11:46.986Z,99528.69
2022-11-02T17:14:33.564Z,99527.47
2022-11-02T17:17:25.288Z,99527.91
2022-11-02T17:23:33.957Z,99533.44
2022-11-02T17:26:22.708Z,99525.13
2022-11-02T17:29:26.382Z,99522.78
2022-11-02T17:32:16.774Z,99524.78
2022-11-02T17:35:04.905Z,99519.22
2022-11-02T17:37:50.080Z,99522.44
2022-11-02T17:40:35.783Z,99522.06
2022-11-02T17:43:23.820Z,99520.84
2022-11-02T17:46:09.459Z,99520.84
2022-11-02T17:48:58.661Z,99524.81
2022-11-02T17:51:44.012Z,99526.38
2022-11-02T17:54:30.018Z,99535.09
2022-11-02T17:57:15.731Z,99531.94
2022-11-02T18:00:01.658Z,99532.72
2022-11-02T18:02:59.395Z,99538.28
2022-11-02T18:05:49.459Z,99536.72
2022-11-02T18:08:56.381Z,99542.66
2022-11-02T18:11:41.959Z,99541.91
2022-11-02T18:14:27.725Z,99538.75
2022-11-02T18:17:13.040Z,99540.72
2022-11-02T18:19:58.475Z,99540.72
2022-11-02T18:22:43.942Z,99539.13
2022-11-02T18:25:30.916Z,99535.97
2022-11-02T18:28:16.578Z,99533.94
2022-11-02T18:31:02.206Z,99541.47
2022-11-02T18:33:47.640Z,99532.78
2022-11-02T18:36:33.209Z,99525.25
2022-11-02T18:39:18.532Z,99526.47
2022-11-02T18:42:05.389Z,99526.91
2022-11-02T18:44:50.835Z,99530.47
2022-11-02T18:47:36.666Z,99527.31
2022-11-02T18:50:21.870Z,99520.63
2022-11-02T18:53:07.433Z,99518.28
2022-11-02T18:55:52.682Z,99512.34
2022-11-02T18:58:38.499Z,99521.06
2022-11-02T19:01:25.878Z,99517.94
2022-11-02T19:04:16.940Z,99519.94
2022-11-02T19:07:21.507Z,99528.31
2022-11-02T19:10:07.097Z,99518.00
2022-11-02T19:12:52.605Z,99520.03
2022-11-02T19:15:42.375Z,99519.66
2022-11-02T19:18:28.506Z,99523.63
2022-11-02T19:21:13.874Z,99519.69
2022-11-02T19:24:00.009Z,99526.84
2022-11-02T19:26:45.449Z,99529.25
2022-11-02T19:29:30.668Z,99520.53
2022-11-02T19:32:16.961Z,99515.41
2022-11-02T19:35:02.629Z,99515.81
2022-11-02T19:37:47.868Z,99512.66
2022-11-02T19:40:34.102Z,99515.84
2022-11-02T19:43:19.494Z,99507.13
2022-11-02T19:46:07.271Z,99515.06
2022-11-02T19:48:53.509Z,99521.03
2022-11-02T19:51:38.914Z,99512.31
2022-11-02T19:54:24.211Z,99508.00
2022-11-02T19:57:09.382Z,99511.97
2022-11-02T19:59:54.621Z,99522.25
2022-11-02T20:02:40.106Z,99523.47
2022-11-02T20:05:25.278Z,99518.31
2022-11-02T20:08:11.100Z,99516.75
2022-11-02T20:11:06.679Z,99524.69
2022-11-02T20:13:52.302Z,99526.69
2022-11-02T20:16:37.478Z,99530.63
2022-11-02T20:19:22.807Z,99528.25
2022-11-02T20:22:07.950Z,99525.47
2022-11-02T20:24:53.133Z,99525.13
2022-11-02T20:27:40.717Z,99527.09
2022-11-02T20:30:26.316Z,99528.31
2022-11-02T20:33:11.424Z,99533.47
2022-11-02T20:35:56.563Z,99540.59
2022-11-02T20:38:42.469Z,99544.56
2022-11-02T20:41:27.788Z,99544.56
2022-11-02T20:44:12.917Z,99540.22
2022-11-02T20:46:58.205Z,99546.94
2022-11-02T20:49:51.319Z,99546.59
2022-11-02T20:52:38.394Z,99542.22
2022-11-02T20:55:23.666Z,99537.91
2022-11-02T20:58:08.953Z,99544.63
2022-11-02T21:00:54.629Z,99544.63
2022-11-02T21:03:40.444Z,99546.97
2022-11-02T21:06:25.985Z,99558.06
2022-11-02T21:09:12.198Z,99556.50
2022-11-02T21:12:17.472Z,99559.66
2022-11-02T21:15:02.872Z,99556.13
2022-11-02T21:17:48.080Z,99551.75
2022-11-02T21:20:34.464Z,99550.97
2022-11-02T21:23:19.881Z,99554.94
2022-11-02T21:26:08.140Z,99552.16
2022-11-02T21:28:53.873Z,99547.03
2022-11-02T21:31:39.230Z,99558.13
2022-11-02T21:34:24.596Z,99552.97
2022-11-02T21:37:09.803Z,99554.94
2022-11-02T21:39:55.106Z,99549.81
2022-11-02T21:42:41.387Z,99562.88
2022-11-02T21:45:26.568Z,99562.88
2022-11-02T21:48:12.209Z,99560.88
2022-11-02T21:51:07.842Z,99561.28
2022-11-02T21:53:53.081Z,99556.13
2022-11-02T21:56:38.418Z,99556.13
2022-11-02T21:59:23.667Z,99553.34
2022-11-02T22:02:09.582Z,99552.16
2022-11-02T22:04:56.020Z,99547.81
2022-11-02T22:08:01.532Z,99553.78
2022-11-02T22:10:47.342Z,99551.00
2022-11-02T22:13:32.652Z,99551.00
2022-11-02T22:16:20.404Z,99545.47
2022-11-02T22:19:13.885Z,99541.88
2022-11-02T22:22:00.039Z,99539.53
2022-11-02T22:24:45.615Z,99539.53
2022-11-02T22:27:30.946Z,99545.06
2022-11-02T22:30:16.216Z,99538.72
2022-11-02T22:33:01.441Z,99537.94
2022-11-02T22:35:46.726Z,99540.72
2022-11-02T22:38:50.537Z,99530.81
2022-11-02T22:41:38.298Z,99539.16
2022-11-02T22:44:24.043Z,99525.69
2022-11-02T22:47:09.200Z,99534.00
2022-11-02T22:49:54.541Z,99534.38
2022-11-02T22:52:39.802Z,99529.66
2022-11-02T22:55:24.993Z,99534.81
2022-11-02T22:58:10.371Z,99537.59
2022-11-02T23:00:56.402Z,99536.78
2022-11-02T23:03:42.784Z,99538.38
2022-11-02T23:06:28.889Z,99539.16
2022-11-02T23:09:14.239Z,99542.31
2022-11-02T23:11:59.613Z,99538.38
2022-11-02T23:14:44.751Z,99541.16
2022-11-02T23:17:30.002Z,99539.16
2022-11-02T23:20:15.294Z,99543.91
2022-11-02T23:23:19.251Z,99536.78
2022-11-02T23:26:04.958Z,99543.13
2022-11-02T23:29:08.539Z,99539.16
2022-11-02T23:32:12.601Z,99542.31
2022-11-02T23:35:17.532Z,99542.31
2022-11-02T23:38:04.531Z,99532.44
2022-11-02T23:40:54.513Z,99530.44
2022-11-02T23:43:39.861Z,99525.69
2022-11-02T23:46:25.186Z,99518.59
2022-11-02T23:49:11.343Z,99514.59
2022-11-02T23:52:15.261Z,99513.03
2022-11-02T23:55:35.985Z,99515.81
2022-11-02T23:58:21.122Z,99506.72
